This is the latest recevied weather packets stored in our database for station/object VE3MJM-WX. If no packets are shown the sender has not sent any weather packets the latest 10 day(s).
| Time | Temp. | Humidity | Pressure | Rain* | Wind** | Luminosity | Snow |
|---|---|---|---|---|---|---|---|
| 1777599374 | 4.44° C | 71% | 1009.1 hPa | 0 mm | - | - | - |
| 1777598472 | 4.44° C | 71% | 1008.9 hPa | 0 mm | - | - | - |
| 1777597569 | 4.44° C | 70% | 1008.8 hPa | 0 mm | - | - | - |
| 1777596667 | 4.44° C | 71% | 1008.7 hPa | 0 mm | - | - | - |
| 1777595764 | 4.44° C | 68% | 1008.5 hPa | 0 mm | - | - | - |
| 1777594861 | 4.44° C | 69% | 1008.6 hPa | 0 mm | - | - | - |
| 1777593959 | 5° C | 66% | 1008.1 hPa | 0 mm | - | - | - |
| 1777593056 | 5.56° C | 64% | 1008.2 hPa | 0 mm | - | - | - |
| 1777592154 | 6.11° C | 63% | 1007.9 hPa | 0 mm | - | - | - |
| 1777591251 | 5.56° C | 64% | 1007.9 hPa | 0 mm | - | - | - |
| 1777590349 | 6.11° C | 63% | 1007.6 hPa | 0 mm | - | - | - |
| 1777589446 | 6.11° C | 62% | 1007.7 hPa | 0 mm | - | - | - |
| 1777588544 | 6.11° C | 64% | 1007.7 hPa | 0 mm | - | - | - |
| 1777587641 | 6.67° C | 64% | 1007.7 hPa | 0 mm | - | - | - |
| 1777586739 | 7.22° C | 63% | 1007.5 hPa | 0 mm | - | - | - |
| 1777585836 | 7.78° C | 61% | 1007.2 hPa | 0 mm | - | - | - |
| 1777584933 | 8.89° C | 60% | 1006.6 hPa | 0 mm | - | - | - |
| 1777584031 | 9.44° C | 52% | 1006.4 hPa | 0 mm | - | - | - |
| 1777583128 | 9.44° C | 51% | 1006.3 hPa | 0 mm | - | - | - |
| 1777582226 | 9.44° C | 51% | 1006.5 hPa | 0 mm | - | - | - |
| 1777581323 | 9.44° C | 49% | 1006.3 hPa | 0 mm | - | - | - |
| 1777580421 | 10° C | 49% | 1006.1 hPa | 0 mm | - | - | - |
| 1777579518 | 9.44° C | 53% | 1006.2 hPa | 0 mm | - | - | - |
| 1777578616 | 9.44° C | 53% | 1006 hPa | 0 mm | - | - | - |
| 1777577713 | 9.44° C | 53% | 1006.3 hPa | 0 mm | - | - | - |
* Rain latest hour (hover to see other rain measurements)
** Current wind speed in m/s (hover to see current wind gust speed)